createdAt,value
2022-11-16T00:01:44.815Z,2.53
2022-11-16T00:04:12.303Z,2.73
2022-11-16T00:06:39.327Z,2.57
2022-11-16T00:09:28.593Z,2.87
2022-11-16T00:11:57.611Z,2.90
2022-11-16T00:14:27.226Z,2.80
2022-11-16T00:16:54.264Z,3.27
2022-11-16T00:19:20.888Z,2.50
2022-11-16T00:21:47.555Z,2.73
2022-11-16T00:24:18.750Z,3.03
2022-11-16T00:26:45.848Z,3.20
2022-11-16T00:29:21.305Z,2.93
2022-11-16T00:31:48.733Z,2.77
2022-11-16T00:34:15.794Z,2.90
2022-11-16T00:36:42.572Z,2.87
2022-11-16T00:39:12.351Z,3.10
2022-11-16T00:41:39.539Z,3.17
2022-11-16T00:44:06.638Z,2.80
2022-11-16T00:46:33.399Z,3.10
2022-11-16T00:49:00.075Z,3.20
2022-11-16T00:51:27.084Z,3.33
2022-11-16T00:53:54.100Z,3.13
2022-11-16T00:56:21.132Z,2.77
2022-11-16T00:58:48.140Z,2.80
2022-11-16T01:01:15.528Z,3.00
2022-11-16T01:03:42.172Z,3.07
2022-11-16T01:06:11.071Z,3.13
2022-11-16T01:08:39.290Z,2.80
2022-11-16T01:11:25.908Z,3.20
2022-11-16T01:13:52.973Z,2.73
2022-11-16T01:16:21.545Z,3.73
2022-11-16T01:18:52.483Z,3.40
2022-11-16T01:21:19.645Z,2.80
2022-11-16T01:23:46.355Z,3.30
2022-11-16T01:26:13.221Z,3.40
2022-11-16T01:28:39.817Z,3.20
2022-11-16T01:31:06.529Z,3.10
2022-11-16T01:33:33.149Z,3.30
2022-11-16T01:36:00.162Z,3.07
2022-11-16T01:38:29.737Z,3.03
2022-11-16T01:40:56.795Z,2.87
2022-11-16T01:43:25.200Z,3.07
2022-11-16T01:45:52.570Z,3.17
2022-11-16T01:48:29.486Z,3.07
2022-11-16T01:50:57.386Z,3.33
2022-11-16T01:53:24.808Z,3.40
2022-11-16T01:55:52.045Z,3.30
2022-11-16T01:58:22.960Z,3.47
2022-11-16T02:00:49.658Z,3.37
2022-11-16T02:03:20.436Z,3.23
2022-11-16T02:05:46.977Z,3.30
2022-11-16T02:08:47.957Z,2.87
2022-11-16T02:11:49.969Z,3.13
2022-11-16T02:14:33.636Z,3.17
2022-11-16T02:17:18.714Z,3.30
2022-11-16T02:19:45.339Z,3.20
2022-11-16T02:22:14.758Z,3.13
2022-11-16T02:25:17.204Z,3.50
2022-11-16T02:28:02.406Z,3.23
2022-11-16T02:30:29.016Z,4.00
2022-11-16T02:33:01.560Z,3.43
2022-11-16T02:35:43.879Z,3.23
2022-11-16T02:38:17.452Z,3.37
2022-11-16T02:40:48.315Z,3.07
2022-11-16T02:43:22.614Z,3.00
2022-11-16T02:45:51.676Z,3.47
2022-11-16T02:48:24.523Z,3.30
2022-11-16T02:50:53.295Z,4.37
2022-11-16T02:53:25.109Z,3.80
2022-11-16T02:55:51.961Z,3.63
2022-11-16T02:58:21.424Z,4.63
2022-11-16T03:01:03.444Z,4.37
2022-11-16T03:03:50.563Z,3.93
2022-11-16T03:06:21.903Z,4.07
2022-11-16T03:08:55.716Z,3.80
2022-11-16T03:11:41.777Z,4.00
2022-11-16T03:14:14.559Z,4.13
2022-11-16T03:16:49.104Z,4.03
2022-11-16T03:19:23.452Z,4.43
2022-11-16T03:22:05.008Z,4.97
2022-11-16T03:24:31.969Z,4.23
2022-11-16T03:26:58.940Z,4.23
2022-11-16T03:29:37.638Z,4.70
2022-11-16T03:32:19.546Z,4.57
2022-11-16T03:34:56.753Z,4.40
2022-11-16T03:37:24.774Z,4.17
2022-11-16T03:39:53.157Z,4.87
2022-11-16T03:42:22.261Z,4.63
2022-11-16T03:44:49.641Z,5.20
2022-11-16T03:47:16.482Z,4.60
2022-11-16T03:49:47.621Z,4.40
2022-11-16T03:52:16.050Z,4.67
2022-11-16T03:54:43.171Z,4.33
2022-11-16T03:57:15.463Z,5.20
2022-11-16T03:59:43.246Z,4.37
2022-11-16T04:02:10.218Z,5.53
2022-11-16T04:04:56.115Z,5.50
2022-11-16T04:07:41.959Z,5.00
2022-11-16T04:10:28.971Z,5.40
2022-11-16T04:13:15.349Z,5.43
2022-11-16T04:16:01.358Z,5.13
2022-11-16T04:18:47.185Z,5.80
2022-11-16T04:21:42.150Z,6.07
2022-11-16T04:24:19.117Z,5.93
2022-11-16T04:27:26.709Z,5.83
2022-11-16T04:29:55.743Z,6.03
2022-11-16T04:32:41.388Z,5.87
2022-11-16T04:35:46.474Z,6.63
2022-11-16T04:38:13.455Z,5.73
2022-11-16T04:40:40.064Z,6.40
2022-11-16T04:43:07.393Z,6.43
2022-11-16T04:45:52.653Z,6.93
2022-11-16T04:48:19.990Z,5.17
2022-11-16T04:50:47.580Z,6.87
2022-11-16T04:53:14.736Z,6.03
2022-11-16T04:55:41.378Z,5.90
2022-11-16T04:58:08.391Z,5.87
2022-11-16T05:00:35.464Z,6.97
2022-11-16T05:03:04.344Z,6.10
2022-11-16T05:05:31.328Z,6.50
2022-11-16T05:07:57.961Z,6.30
2022-11-16T05:10:24.990Z,6.57
2022-11-16T05:12:51.989Z,6.37
2022-11-16T05:15:19.729Z,6.90
2022-11-16T05:17:47.405Z,6.53
2022-11-16T05:20:32.860Z,6.20
2022-11-16T05:22:59.993Z,7.40
2022-11-16T05:25:27.906Z,7.10
2022-11-16T05:27:56.323Z,6.77
2022-11-16T05:30:22.888Z,7.87
2022-11-16T05:32:50.040Z,7.50
2022-11-16T05:35:17.038Z,7.20
2022-11-16T05:37:44.032Z,7.23
2022-11-16T05:40:11.313Z,7.20
2022-11-16T05:42:38.409Z,7.60
2022-11-16T05:45:05.426Z,7.30
2022-11-16T05:47:33.327Z,7.40
2022-11-16T05:50:00.316Z,7.57
2022-11-16T05:52:27.317Z,7.23
2022-11-16T05:54:53.926Z,7.67
2022-11-16T05:57:20.937Z,7.63
2022-11-16T05:59:47.600Z,7.83
2022-11-16T06:02:14.757Z,7.33
2022-11-16T06:04:41.754Z,7.30
2022-11-16T06:07:08.828Z,8.10
2022-11-16T06:09:35.924Z,7.20
2022-11-16T06:12:02.978Z,7.13
2022-11-16T06:14:29.513Z,6.87
2022-11-16T06:16:56.559Z,6.53
2022-11-16T06:19:25.139Z,7.03
2022-11-16T06:21:55.281Z,6.90
2022-11-16T06:24:22.056Z,7.13
2022-11-16T06:26:49.120Z,6.40
2022-11-16T06:29:15.680Z,7.10
2022-11-16T06:31:42.706Z,6.60
2022-11-16T06:34:09.847Z,6.97
2022-11-16T06:36:36.411Z,6.47
2022-11-16T06:39:03.108Z,7.23
2022-11-16T06:41:30.172Z,7.10
2022-11-16T06:43:57.167Z,7.00
2022-11-16T06:46:24.572Z,7.37
2022-11-16T06:48:51.332Z,7.90
2022-11-16T06:51:17.993Z,7.77
2022-11-16T06:53:44.655Z,6.87
2022-11-16T06:56:13.945Z,7.70
2022-11-16T06:58:42.738Z,7.60
2022-11-16T07:01:11.603Z,7.93
2022-11-16T07:03:38.629Z,8.53
2022-11-16T07:06:07.739Z,7.23
2022-11-16T07:08:34.819Z,7.20
2022-11-16T07:11:04.459Z,6.70
2022-11-16T07:13:32.704Z,6.80
2022-11-16T07:16:06.997Z,7.13
2022-11-16T07:18:35.456Z,7.37
2022-11-16T07:21:10.276Z,6.80
2022-11-16T07:23:37.553Z,6.80
2022-11-16T07:26:05.707Z,6.67
2022-11-16T07:28:32.967Z,6.50
2022-11-16T07:31:04.329Z,6.03
2022-11-16T07:33:31.217Z,6.07
2022-11-16T07:36:12.032Z,6.63
2022-11-16T07:38:39.126Z,6.40
2022-11-16T07:41:08.160Z,5.83
2022-11-16T07:43:35.431Z,6.60
2022-11-16T07:48:59.016Z,6.00
2022-11-16T07:51:26.147Z,5.60
2022-11-16T07:53:55.797Z,5.70
2022-11-16T07:56:22.873Z,5.50
2022-11-16T07:58:50.176Z,5.80
2022-11-16T08:01:18.383Z,5.47
2022-11-16T08:03:45.934Z,5.37
2022-11-16T08:06:19.096Z,6.10
2022-11-16T08:08:46.141Z,5.37
2022-11-16T08:11:13.329Z,6.07
2022-11-16T08:13:41.343Z,5.03
2022-11-16T08:16:12.028Z,5.00
2022-11-16T08:18:39.413Z,5.40
2022-11-16T08:21:07.509Z,5.47
2022-11-16T08:23:34.910Z,5.43
2022-11-16T08:26:09.221Z,5.17
2022-11-16T08:28:37.079Z,5.53
2022-11-16T08:31:15.430Z,6.00
2022-11-16T08:33:43.139Z,5.30
2022-11-16T08:36:14.407Z,5.07
2022-11-16T08:38:41.225Z,5.50
2022-11-16T08:41:08.120Z,4.87
2022-11-16T08:43:35.782Z,5.30
2022-11-16T08:46:03.160Z,5.07
2022-11-16T08:48:30.425Z,4.73
2022-11-16T08:51:17.384Z,5.30
2022-11-16T08:53:45.265Z,5.03
2022-11-16T08:56:15.292Z,5.27
2022-11-16T08:58:43.597Z,4.70
2022-11-16T09:01:12.334Z,6.03
2022-11-16T09:03:39.560Z,5.57
2022-11-16T09:06:07.484Z,5.13
2022-11-16T09:08:34.888Z,4.97
2022-11-16T09:11:07.860Z,4.50
2022-11-16T09:13:35.679Z,4.97
2022-11-16T09:16:03.319Z,4.80
2022-11-16T09:18:30.473Z,4.53
2022-11-16T09:20:58.046Z,4.83
2022-11-16T09:23:25.921Z,4.50
2022-11-16T09:25:53.380Z,4.90
2022-11-16T09:28:21.511Z,5.00
2022-11-16T09:30:50.413Z,3.97
2022-11-16T09:33:17.476Z,4.67
2022-11-16T09:35:44.584Z,4.47
2022-11-16T09:38:13.643Z,4.90
2022-11-16T09:40:45.946Z,4.73
2022-11-16T09:43:28.523Z,4.70
2022-11-16T09:46:12.947Z,4.13
2022-11-16T09:48:41.270Z,4.10
2022-11-16T09:51:13.628Z,4.50
2022-11-16T09:53:48.082Z,4.87
2022-11-16T09:56:26.930Z,4.03
2022-11-16T09:59:20.148Z,4.60
2022-11-16T10:02:14.098Z,4.10
2022-11-16T10:05:03.743Z,5.87
2022-11-16T10:07:49.094Z,4.20
2022-11-16T10:10:21.220Z,4.60
2022-11-16T10:12:56.668Z,3.90
2022-11-16T10:15:44.971Z,4.60
2022-11-16T10:18:27.609Z,3.20
2022-11-16T10:21:32.966Z,3.90
2022-11-16T10:24:25.400Z,3.07
2022-11-16T10:27:09.237Z,2.60
2022-11-16T10:29:57.676Z,2.53
2022-11-16T10:32:45.319Z,2.30
2022-11-16T10:35:15.319Z,2.93
2022-11-16T10:37:48.149Z,2.40
2022-11-16T10:40:23.319Z,2.77
2022-11-16T10:43:17.704Z,3.07
2022-11-16T10:46:15.434Z,2.50
2022-11-16T10:48:48.239Z,3.03
2022-11-16T10:51:14.931Z,3.00
2022-11-16T10:53:44.159Z,2.73
2022-11-16T10:56:19.471Z,3.60
2022-11-16T10:59:02.167Z,4.03
2022-11-16T11:01:33.319Z,3.93
2022-11-16T11:04:26.372Z,3.13
2022-11-16T11:06:58.564Z,3.83
2022-11-16T11:09:34.115Z,3.93
2022-11-16T11:12:20.769Z,4.40
2022-11-16T11:15:12.258Z,3.50
2022-11-16T11:17:44.359Z,2.33
2022-11-16T11:20:16.986Z,4.30
2022-11-16T11:22:57.620Z,3.53
2022-11-16T11:25:32.412Z,2.40
2022-11-16T11:28:25.024Z,2.77
2022-11-16T11:31:13.595Z,3.40
2022-11-16T11:33:49.652Z,3.20
2022-11-16T11:36:18.684Z,2.03
2022-11-16T11:39:20.589Z,1.60
2022-11-16T11:42:01.746Z,2.03
2022-11-16T11:44:54.413Z,2.37
2022-11-16T11:47:59.866Z,2.50
2022-11-16T11:50:49.573Z,2.20
2022-11-16T11:53:39.779Z,2.13
2022-11-16T11:56:07.712Z,2.10
2022-11-16T11:58:37.495Z,2.27
2022-11-16T12:01:25.534Z,2.33
2022-11-16T12:04:24.879Z,1.90
2022-11-16T12:07:06.444Z,1.53
2022-11-16T12:10:01.744Z,1.87
2022-11-16T12:13:03.433Z,3.10
2022-11-16T12:15:30.516Z,2.10
2022-11-16T12:18:12.154Z,1.93
2022-11-16T12:20:47.146Z,1.60
2022-11-16T12:23:31.259Z,1.73
2022-11-16T12:26:10.015Z,1.67
2022-11-16T12:28:58.523Z,2.07
2022-11-16T12:31:25.504Z,1.80
2022-11-16T12:33:58.009Z,1.73
2022-11-16T12:36:46.260Z,1.60
2022-11-16T12:39:31.149Z,1.47
2022-11-16T12:42:33.104Z,1.40
2022-11-16T12:45:18.345Z,1.50
2022-11-16T12:47:59.148Z,1.90
2022-11-16T12:50:48.694Z,1.67
2022-11-16T12:53:34.485Z,3.37
2022-11-16T12:56:10.221Z,1.80
2022-11-16T12:58:37.240Z,1.47
2022-11-16T13:01:20.780Z,1.60
2022-11-16T13:03:55.635Z,1.30
2022-11-16T13:06:44.142Z,1.67
2022-11-16T13:09:34.245Z,1.40
2022-11-16T13:12:04.391Z,1.80
2022-11-16T13:14:39.391Z,1.40
2022-11-16T13:17:07.451Z,1.40
2022-11-16T13:19:42.826Z,1.50
2022-11-16T13:22:21.569Z,1.53
2022-11-16T13:25:03.799Z,1.17
2022-11-16T13:27:30.361Z,1.47
2022-11-16T13:30:04.123Z,1.10
2022-11-16T13:32:42.745Z,0.93
2022-11-16T13:35:15.972Z,1.40
2022-11-16T13:37:43.609Z,1.20
2022-11-16T13:40:22.600Z,1.23
2022-11-16T13:43:01.088Z,1.13
2022-11-16T13:45:32.963Z,1.23
2022-11-16T13:48:20.103Z,1.40
2022-11-16T13:50:54.658Z,1.30
2022-11-16T13:56:28.944Z,1.37
2022-11-16T13:58:58.156Z,1.17
2022-11-16T14:01:26.559Z,1.20
2022-11-16T14:04:31.860Z,1.10
2022-11-16T14:06:59.837Z,1.83
2022-11-16T14:09:47.142Z,1.30
2022-11-16T14:12:52.892Z,1.20
2022-11-16T14:15:25.494Z,1.63
2022-11-16T14:18:00.110Z,1.00
2022-11-16T14:20:56.048Z,1.30
2022-11-16T14:23:44.379Z,1.10
2022-11-16T14:26:25.097Z,1.07
2022-11-16T14:29:13.181Z,1.47
2022-11-16T14:31:56.667Z,1.40
2022-11-16T14:34:45.817Z,1.30
2022-11-16T14:37:34.761Z,1.30
2022-11-16T14:40:17.777Z,1.50
2022-11-16T14:43:22.759Z,1.43
2022-11-16T14:45:56.706Z,1.47
2022-11-16T14:48:28.196Z,1.40
2022-11-16T14:51:09.870Z,1.20
2022-11-16T14:53:46.061Z,0.90
2022-11-16T14:56:15.119Z,1.80
2022-11-16T14:58:53.598Z,1.90
2022-11-16T15:01:24.848Z,0.93
2022-11-16T15:04:10.043Z,1.17
2022-11-16T15:06:45.559Z,0.80
2022-11-16T15:09:22.465Z,1.13
2022-11-16T15:12:09.228Z,1.00
2022-11-16T15:14:41.609Z,1.37
2022-11-16T15:17:09.765Z,1.10
2022-11-16T15:19:36.533Z,2.40
2022-11-16T15:22:04.424Z,2.90
2022-11-16T15:24:34.675Z,1.83
2022-11-16T15:27:23.218Z,2.40
2022-11-16T15:29:49.802Z,2.07
2022-11-16T15:32:17.213Z,2.00
2022-11-16T15:34:51.435Z,1.63
2022-11-16T15:37:28.122Z,1.90
2022-11-16T15:39:56.863Z,1.47
2022-11-16T15:42:25.580Z,1.73
2022-11-16T15:44:52.882Z,1.50
2022-11-16T15:47:20.468Z,2.17
2022-11-16T15:49:53.021Z,1.60
2022-11-16T15:52:52.609Z,1.60
2022-11-16T15:55:31.587Z,1.40
2022-11-16T15:58:00.058Z,1.20
2022-11-16T16:00:27.918Z,1.83
2022-11-16T16:03:23.256Z,3.03
2022-11-16T16:05:50.208Z,4.30
2022-11-16T16:08:35.452Z,6.10
2022-11-16T16:11:05.379Z,3.70
2022-11-16T16:13:38.155Z,3.53
2022-11-16T16:16:22.154Z,2.10
2022-11-16T16:18:49.617Z,2.63
2022-11-16T16:21:16.635Z,2.20
2022-11-16T16:23:47.534Z,2.50
2022-11-16T16:26:15.615Z,3.07
2022-11-16T16:28:42.629Z,1.90
2022-11-16T16:31:10.096Z,1.93
2022-11-16T16:33:37.397Z,1.77
2022-11-16T16:36:04.997Z,1.90
2022-11-16T16:38:31.790Z,1.57
2022-11-16T16:41:03.471Z,1.07
2022-11-16T16:43:31.419Z,1.60
2022-11-16T16:46:02.943Z,1.43
2022-11-16T16:48:29.951Z,1.60
2022-11-16T16:50:57.179Z,1.70
2022-11-16T16:53:23.840Z,1.63
2022-11-16T16:55:50.485Z,2.30
2022-11-16T16:58:17.206Z,2.00
2022-11-16T17:00:43.978Z,2.40
2022-11-16T17:03:10.780Z,2.40
2022-11-16T17:05:37.682Z,2.50
2022-11-16T17:08:04.559Z,2.33
2022-11-16T17:10:31.249Z,2.00
2022-11-16T17:12:58.364Z,2.00
2022-11-16T17:15:25.518Z,2.37
2022-11-16T17:17:52.239Z,2.00
2022-11-16T17:20:18.883Z,1.73
2022-11-16T17:22:45.887Z,1.60
2022-11-16T17:25:12.626Z,1.50
2022-11-16T17:27:39.262Z,2.07
2022-11-16T17:30:07.191Z,1.70
2022-11-16T17:32:33.749Z,1.80
2022-11-16T17:35:00.308Z,1.20
2022-11-16T17:37:26.880Z,1.37
2022-11-16T17:39:53.438Z,1.10
2022-11-16T17:42:20.102Z,1.27
2022-11-16T17:44:46.679Z,1.10
2022-11-16T17:47:13.289Z,1.20
2022-11-16T17:49:39.893Z,1.30
2022-11-16T17:52:07.271Z,1.30
2022-11-16T17:54:33.831Z,1.27
2022-11-16T17:57:00.413Z,0.93
2022-11-16T17:59:29.844Z,1.07
2022-11-16T18:01:57.833Z,1.30
2022-11-16T18:04:24.610Z,1.13
2022-11-16T18:06:51.372Z,1.30
2022-11-16T18:09:18.702Z,2.10
2022-11-16T18:11:45.430Z,1.27
2022-11-16T18:14:12.046Z,1.20
2022-11-16T18:16:40.968Z,1.20
2022-11-16T18:19:07.572Z,1.50
2022-11-16T18:21:41.398Z,1.73
2022-11-16T18:24:08.753Z,1.50
2022-11-16T18:26:35.921Z,1.63
2022-11-16T18:29:02.680Z,1.73
2022-11-16T18:31:30.077Z,1.40
2022-11-16T18:33:56.781Z,1.50
2022-11-16T18:36:23.358Z,2.00
2022-11-16T18:38:50.163Z,1.53
2022-11-16T18:41:20.175Z,1.20
2022-11-16T18:43:52.676Z,1.57
2022-11-16T18:46:28.324Z,1.37
2022-11-16T18:48:55.578Z,1.53
2022-11-16T18:51:23.710Z,1.50
2022-11-16T18:53:50.656Z,1.50
2022-11-16T18:56:18.079Z,1.70
2022-11-16T18:58:53.440Z,1.43
2022-11-16T19:01:25.658Z,2.07
2022-11-16T19:03:53.915Z,1.73
2022-11-16T19:06:21.632Z,1.40
2022-11-16T19:08:55.874Z,1.20
2022-11-16T19:11:23.933Z,1.97
2022-11-16T19:13:55.792Z,1.60
2022-11-16T19:16:24.041Z,1.47
2022-11-16T19:18:50.745Z,1.93
2022-11-16T19:21:21.744Z,1.83
2022-11-16T19:23:51.105Z,1.70
2022-11-16T19:26:22.731Z,2.40
2022-11-16T19:28:50.597Z,2.43
2022-11-16T19:31:25.975Z,2.00
2022-11-16T19:34:05.905Z,1.30
2022-11-16T19:36:33.874Z,1.97
2022-11-16T19:39:00.730Z,1.47
2022-11-16T19:41:28.313Z,1.50
2022-11-16T19:43:59.436Z,2.17
2022-11-16T19:46:31.113Z,1.60
2022-11-16T19:48:58.429Z,1.97
2022-11-16T19:51:28.573Z,1.47
2022-11-16T19:53:55.992Z,2.07
2022-11-16T19:56:24.063Z,1.67
2022-11-16T19:58:51.349Z,1.50
2022-11-16T20:01:27.558Z,1.80
2022-11-16T20:03:56.663Z,1.47
2022-11-16T20:06:26.537Z,1.47
2022-11-16T20:09:02.061Z,1.87
2022-11-16T20:11:30.408Z,1.70
2022-11-16T20:13:58.133Z,1.53
2022-11-16T20:16:27.910Z,1.90
2022-11-16T20:18:54.862Z,1.63
2022-11-16T20:21:21.466Z,1.30
2022-11-16T20:23:49.817Z,1.53
2022-11-16T20:26:16.445Z,1.63
2022-11-16T20:28:43.806Z,1.53
2022-11-16T20:31:27.593Z,1.20
2022-11-16T20:33:59.250Z,1.57
2022-11-16T20:36:28.017Z,1.87
2022-11-16T20:38:56.055Z,1.93
2022-11-16T20:41:32.036Z,1.50
2022-11-16T20:44:00.390Z,1.73
2022-11-16T20:46:32.407Z,1.90
2022-11-16T20:49:01.524Z,1.63
2022-11-16T20:51:29.240Z,1.53
2022-11-16T20:53:56.299Z,1.73
2022-11-16T20:56:23.339Z,1.87
2022-11-16T20:58:50.369Z,1.77
2022-11-16T21:01:19.991Z,1.87
2022-11-16T21:03:46.701Z,1.90
2022-11-16T21:06:14.752Z,2.20
2022-11-16T21:08:41.774Z,2.07
2022-11-16T21:11:12.199Z,2.00
2022-11-16T21:13:57.531Z,1.70
2022-11-16T21:16:24.317Z,1.80
2022-11-16T21:18:51.343Z,1.33
2022-11-16T21:21:18.356Z,2.80
2022-11-16T21:23:51.213Z,1.60
2022-11-16T21:26:23.358Z,2.30
2022-11-16T21:28:50.515Z,1.97
2022-11-16T21:31:19.891Z,1.93
2022-11-16T21:33:47.415Z,1.77
2022-11-16T21:36:19.148Z,2.00
2022-11-16T21:38:45.997Z,2.10
2022-11-16T21:41:14.581Z,1.30
2022-11-16T21:43:41.451Z,2.03
2022-11-16T21:46:23.024Z,2.10
2022-11-16T21:48:50.996Z,2.10
2022-11-16T21:51:19.884Z,1.97
2022-11-16T21:53:46.815Z,1.97
2022-11-16T21:56:24.007Z,1.73
2022-11-16T21:58:52.756Z,1.90
2022-11-16T22:01:20.280Z,1.80
2022-11-16T22:03:47.025Z,2.23
2022-11-16T22:06:34.029Z,1.93
2022-11-16T22:09:00.791Z,1.77
2022-11-16T22:11:27.441Z,1.60
2022-11-16T22:13:54.323Z,1.90
2022-11-16T22:16:23.080Z,1.67
2022-11-16T22:18:50.114Z,2.20
2022-11-16T22:21:17.398Z,1.70
2022-11-16T22:23:44.278Z,2.23
2022-11-16T22:26:13.084Z,1.90
2022-11-16T22:28:39.738Z,2.00
2022-11-16T22:31:09.376Z,1.70
2022-11-16T22:33:36.460Z,1.80
2022-11-16T22:36:03.733Z,1.70
2022-11-16T22:38:30.320Z,2.17
2022-11-16T22:40:57.716Z,2.20
2022-11-16T22:43:26.603Z,2.13
2022-11-16T22:46:04.395Z,1.90
2022-11-16T22:48:32.977Z,2.30
2022-11-16T22:51:20.192Z,2.80
2022-11-16T22:53:46.987Z,2.73
2022-11-16T22:56:13.848Z,2.13
2022-11-16T22:58:40.656Z,2.40
2022-11-16T23:01:09.152Z,2.53
2022-11-16T23:03:36.774Z,2.30
2022-11-16T23:06:05.458Z,3.27
2022-11-16T23:08:33.056Z,2.43
2022-11-16T23:11:20.177Z,2.37
2022-11-16T23:14:05.557Z,3.07
2022-11-16T23:16:32.548Z,2.90
2022-11-16T23:18:59.187Z,2.83
2022-11-16T23:21:44.705Z,3.07
2022-11-16T23:24:32.095Z,3.03
2022-11-16T23:27:19.066Z,3.83
2022-11-16T23:29:45.683Z,3.30
2022-11-16T23:32:12.645Z,3.97
2022-11-16T23:34:39.216Z,3.57
2022-11-16T23:37:07.471Z,4.60
2022-11-16T23:39:34.199Z,4.10
2022-11-16T23:42:19.356Z,4.50
2022-11-16T23:44:45.944Z,4.07
2022-11-16T23:47:12.524Z,4.20
2022-11-16T23:49:39.104Z,5.10
2022-11-16T23:52:05.844Z,4.40
2022-11-16T23:54:32.392Z,4.63
2022-11-16T23:56:59.159Z,5.33
2022-11-16T23:59:25.834Z,4.43
